首页
METAR-TAF:

METAR-TAF

机场 :

蒙克顿, 新不倫瑞克, 加拿大

纬度: 46-07N, 经度: 064-41W, 海拔: 71米

当前天气观测

该预报发布于1小时和18分钟前的16:00 UTC
风速9节,风向
温度 17°C
湿度 94%
气压 1001 hPa
能見度: 24.1公里
多云层高于800英尺
阴天层高于1500英尺

METAR: CYQM 241600Z 01009KT 15SM BKN008 OVC015 17/16 A2955 RMK SF7SC1 SLP008 DENSITY ALT 1000FT

时间: 14:18 (17:18 UTC)

预报

该预报发布于1小时和29分钟前的15:49 UTC
预报有效从24日的 15点(UTC)到 25日的 12点(UTC)
风速10节,风向北转东北
能見度: 8.0公里
阴天层高于800英尺
小阵雨, 轻雾
短暂存在
从 24日的 15点(UTC)到 24日的 17点(UTC)
能見度: 10公里
多云层高于1500英尺
阴天层高于2500英尺
从 24日的 1700点(UTC)
风速13节,风向北转东北
能見度: 10公里
多云层高于1500英尺
阴天层高于2500英尺
短暂存在
从 24日的 17点(UTC)到 24日的 23点(UTC)
能見度: 8.0公里
阴天层高于800英尺
小阵雨, 轻雾
从 24日的 2300点(UTC)
风速8节,风向东北
能見度: 3.2公里
阴天层高于300英尺
小阵雨, 轻雾

TAF: CYQM 241549Z 2415/2512 02010KT 5SM -SHRA BR OVC008 TEMPO 2415/2417 P6SM NSW BKN015 OVC025 FM241700 02013KT P6SM BKN015 OVC025 TEMPO 2417/2423 5SM -SHRA BR OVC008 FM242300 04008KT 2SM -SHRA BR OVC003 RMK NXT FCST BY 241800Z

超过4000个机场的气象观测和天气预报(METAR&TAF报告)。

可查询的气象台以黄色和红色小点在地图上表示。

将鼠标移到小点上方,可查看气象台名称。

然后点击查看天气观测和预报。

如需切换地图:点击带黑十字的绿色按钮放大地图;点击带横线的绿色按钮缩小地图;或者点击绿色箭头查看邻近地区的地图。


METAR-TAF: